Isle of Harris, United Kingdom
Current Conditions -  °F | °C
As of 6:20 AM on Monday 26 Jan 2015 (Local Time) from EGPO Reporting Station
Rain Showers Rain Showers  
Wind Chill: 27°   Ceiling: Unl
Heat Index: 37°   Visibility: 6mi
Dew Point: 34°   Wind: 18mph
Humidity: 87%   Direction: 280°W
Pressure: 29.85"   Gusts: NA
Location:  57.99°N, 6.75°W
Report Text: EGPO 260620Z 28016KT 9999 VCSH FEW012 SCT016CB 03/01 Q1011 RESHGS
Loading
Personal Weather Stations






























Interactive Weather Map New forecast layout! Learn more

10-Day Weather Forecast

Advertisements
Track Severe Weather on mobile